createdAt,value
2023-04-08T00:02:05.433Z,3.59
2023-04-08T00:04:33.600Z,3.51
2023-04-08T00:07:01.481Z,3.69
2023-04-08T00:09:29.751Z,3.80
2023-04-08T00:11:57.689Z,3.78
2023-04-08T00:14:28.244Z,3.87
2023-04-08T00:16:56.928Z,3.95
2023-04-08T00:19:24.955Z,4.06
2023-04-08T00:21:52.599Z,4.26
2023-04-08T00:24:20.759Z,4.25
2023-04-08T00:26:48.357Z,4.38
2023-04-08T00:29:16.610Z,4.25
2023-04-08T00:31:46.034Z,4.13
2023-04-08T00:34:16.453Z,4.08
2023-04-08T00:36:48.037Z,3.91
2023-04-08T00:39:15.691Z,3.79
2023-04-08T00:41:43.289Z,3.72
2023-04-08T00:44:10.989Z,3.66
2023-04-08T00:46:42.301Z,3.71
2023-04-08T00:49:12.351Z,3.92
2023-04-08T00:51:40.061Z,3.97
2023-04-08T00:54:07.878Z,3.95
2023-04-08T00:56:37.596Z,3.98
2023-04-08T00:59:05.916Z,3.92
2023-04-08T01:01:40.703Z,3.87
2023-04-08T01:04:17.777Z,3.73
2023-04-08T01:06:52.252Z,3.71
2023-04-08T01:09:28.063Z,3.67
2023-04-08T01:11:57.984Z,3.68
2023-04-08T01:14:28.266Z,3.66
2023-04-08T01:17:00.786Z,3.58
2023-04-08T01:19:32.997Z,3.41
2023-04-08T01:22:12.913Z,3.29
2023-04-08T01:24:44.297Z,3.28
2023-04-08T01:27:15.135Z,3.35
2023-04-08T01:29:45.384Z,3.35
2023-04-08T01:32:15.096Z,3.34
2023-04-08T01:34:44.107Z,3.39
2023-04-08T01:37:13.579Z,3.39
2023-04-08T01:39:42.896Z,3.39
2023-04-08T01:42:13.824Z,3.37
2023-04-08T01:44:42.331Z,3.38
2023-04-08T01:47:13.416Z,3.40
2023-04-08T01:49:45.426Z,3.59
2023-04-08T01:52:16.567Z,3.58
2023-04-08T01:54:44.255Z,3.69
2023-04-08T01:57:19.726Z,3.58
2023-04-08T01:59:50.634Z,3.52
2023-04-08T02:02:21.382Z,3.38
2023-04-08T02:04:49.670Z,3.42
2023-04-08T02:07:18.702Z,3.29
2023-04-08T02:09:48.543Z,3.17
2023-04-08T02:12:18.716Z,3.15
2023-04-08T02:14:46.347Z,3.18
2023-04-08T02:17:25.077Z,3.08
2023-04-08T02:20:00.185Z,3.18
2023-04-08T02:22:34.321Z,3.17
2023-04-08T02:25:04.539Z,3.21
2023-04-08T02:27:35.661Z,3.18
2023-04-08T02:30:08.846Z,3.18
2023-04-08T02:32:45.525Z,3.15
2023-04-08T02:35:15.500Z,3.24
2023-04-08T02:37:50.614Z,3.28
2023-04-08T02:40:24.558Z,3.23
2023-04-08T02:42:54.326Z,3.15
2023-04-08T02:45:30.195Z,3.19
2023-04-08T02:47:58.495Z,3.21
2023-04-08T02:50:26.831Z,3.10
2023-04-08T02:52:58.208Z,3.15
2023-04-08T02:55:27.355Z,3.19
2023-04-08T02:57:56.380Z,3.09
2023-04-08T03:00:26.118Z,3.23
2023-04-08T03:02:55.304Z,3.20
2023-04-08T03:05:23.206Z,3.16
2023-04-08T03:07:50.917Z,3.13
2023-04-08T03:10:18.514Z,3.17
2023-04-08T03:12:47.007Z,3.15
2023-04-08T03:15:16.146Z,3.13
2023-04-08T03:17:45.905Z,3.02
2023-04-08T03:20:13.739Z,2.99
2023-04-08T03:22:41.566Z,2.94
2023-04-08T03:25:10.183Z,2.87
2023-04-08T03:27:37.946Z,2.89
2023-04-08T03:30:08.874Z,2.86
2023-04-08T03:32:38.556Z,2.88
2023-04-08T03:35:07.162Z,2.93
2023-04-08T03:37:35.098Z,3.01
2023-04-08T03:40:11.425Z,3.09
2023-04-08T03:42:40.354Z,3.15
2023-04-08T03:45:17.147Z,3.14
2023-04-08T03:47:46.951Z,3.31
2023-04-08T03:50:14.725Z,3.50
2023-04-08T03:52:49.872Z,3.62
2023-04-08T03:55:20.150Z,3.87
2023-04-08T03:57:47.728Z,3.86
2023-04-08T04:00:15.959Z,4.01
2023-04-08T04:02:53.611Z,4.31
2023-04-08T04:05:23.404Z,4.85
2023-04-08T04:07:54.373Z,5.48
2023-04-08T04:10:22.786Z,5.94
2023-04-08T04:12:54.112Z,6.38
2023-04-08T04:15:28.490Z,6.75
2023-04-08T04:18:01.228Z,7.21
2023-04-08T04:20:29.369Z,7.24
2023-04-08T04:22:58.520Z,7.64
2023-04-08T04:25:29.658Z,8.27
2023-04-08T04:28:10.854Z,8.92
2023-04-08T04:30:40.644Z,9.53
2023-04-08T04:33:17.353Z,9.95
2023-04-08T04:35:55.739Z,10.71
2023-04-08T04:38:23.568Z,10.99
2023-04-08T04:40:52.220Z,11.31
2023-04-08T04:43:20.033Z,12.03
2023-04-08T04:45:53.363Z,12.14
2023-04-08T04:48:22.941Z,12.87
2023-04-08T04:50:55.601Z,13.74
2023-04-08T04:53:23.798Z,14.09
2023-04-08T04:55:52.560Z,14.25
2023-04-08T04:58:20.306Z,14.55
2023-04-08T05:00:49.001Z,14.80
2023-04-08T05:03:18.111Z,15.15
2023-04-08T05:05:55.091Z,14.85
2023-04-08T05:08:24.969Z,15.05
2023-04-08T05:10:54.161Z,15.04
2023-04-08T05:13:27.802Z,15.55
2023-04-08T05:15:56.318Z,15.38
2023-04-08T05:18:23.893Z,16.13
2023-04-08T05:20:59.520Z,16.20
2023-04-08T05:23:27.452Z,15.93
2023-04-08T05:25:55.119Z,16.70
2023-04-08T05:28:28.707Z,17.55
2023-04-08T05:30:56.471Z,17.12
2023-04-08T05:33:24.063Z,17.27
2023-04-08T05:35:52.668Z,16.82
2023-04-08T05:38:23.599Z,18.45
2023-04-08T05:40:53.071Z,18.63
2023-04-08T05:43:20.764Z,17.98
2023-04-08T05:45:49.382Z,18.84
2023-04-08T05:48:17.433Z,19.33
2023-04-08T05:50:45.132Z,20.24
2023-04-08T05:53:13.026Z,19.92
2023-04-08T05:55:42.567Z,18.62
2023-04-08T05:58:10.539Z,18.28
2023-04-08T06:00:38.144Z,19.09
2023-04-08T06:03:20.494Z,19.30
2023-04-08T06:05:48.780Z,19.71
2023-04-08T06:08:16.895Z,18.86
2023-04-08T06:10:50.537Z,18.68
2023-04-08T06:13:18.756Z,17.79
2023-04-08T06:15:46.704Z,18.77
2023-04-08T06:18:14.917Z,18.85
2023-04-08T06:20:43.628Z,17.98
2023-04-08T06:23:11.173Z,18.12
2023-04-08T06:25:40.770Z,19.03
2023-04-08T06:28:09.909Z,19.68
2023-04-08T06:30:38.847Z,19.24
2023-04-08T06:33:07.853Z,19.26
2023-04-08T06:35:35.650Z,20.35
2023-04-08T06:38:03.502Z,20.58
2023-04-08T06:40:33.763Z,19.70
2023-04-08T06:43:01.812Z,19.78
2023-04-08T06:45:30.893Z,18.81
2023-04-08T06:47:58.758Z,18.03
2023-04-08T06:50:26.582Z,17.26
2023-04-08T06:52:55.488Z,17.54
2023-04-08T06:55:23.288Z,17.79
2023-04-08T06:57:53.252Z,17.83
2023-04-08T07:00:21.218Z,18.16
2023-04-08T07:03:10.832Z,19.44
2023-04-08T07:05:39.027Z,19.31
2023-04-08T07:08:06.786Z,19.92
2023-04-08T07:10:40.468Z,19.93
2023-04-08T07:13:08.490Z,20.14
2023-04-08T07:15:36.045Z,19.88
2023-04-08T07:18:04.673Z,19.76
2023-04-08T07:20:33.999Z,18.79
2023-04-08T07:23:03.522Z,19.13
2023-04-08T07:25:33.320Z,19.17
2023-04-08T07:28:00.969Z,18.88
2023-04-08T07:30:29.950Z,17.35
2023-04-08T07:32:59.200Z,16.83
2023-04-08T07:35:30.136Z,17.21
2023-04-08T07:37:59.414Z,16.31
2023-04-08T07:40:26.954Z,16.27
2023-04-08T07:42:54.662Z,16.17
2023-04-08T07:45:22.453Z,16.16
2023-04-08T07:47:50.760Z,16.63
2023-04-08T07:50:19.160Z,17.20
2023-04-08T07:52:46.849Z,16.56
2023-04-08T07:55:15.993Z,16.26
2023-04-08T07:57:43.965Z,15.55
2023-04-08T08:00:14.359Z,15.70
2023-04-08T08:02:43.287Z,16.98
2023-04-08T08:05:11.115Z,16.73
2023-04-08T08:07:41.399Z,17.21
2023-04-08T08:10:09.757Z,16.99
2023-04-08T08:12:39.327Z,16.73
2023-04-08T08:15:08.303Z,16.05
2023-04-08T08:17:36.699Z,16.41
2023-04-08T08:20:05.828Z,16.66
2023-04-08T08:22:33.678Z,16.09
2023-04-08T08:25:01.517Z,17.09
2023-04-08T08:27:29.541Z,17.54
2023-04-08T08:29:58.837Z,16.70
2023-04-08T08:32:26.892Z,16.61
2023-04-08T08:34:54.569Z,16.26
2023-04-08T08:37:22.772Z,16.85
2023-04-08T08:39:50.794Z,17.19
2023-04-08T08:42:19.781Z,17.40
2023-04-08T08:44:48.502Z,17.34
2023-04-08T08:47:18.710Z,17.52
2023-04-08T08:49:48.093Z,17.53
2023-04-08T08:52:16.711Z,17.40
2023-04-08T08:54:44.839Z,17.18
2023-04-08T08:57:19.439Z,17.11
2023-04-08T08:59:49.543Z,16.79
2023-04-08T09:02:29.252Z,16.09
2023-04-08T09:05:01.200Z,16.25
2023-04-08T09:07:32.089Z,16.38
2023-04-08T09:10:00.194Z,16.42
2023-04-08T09:12:30.816Z,15.98
2023-04-08T09:15:06.561Z,16.04
2023-04-08T09:17:37.107Z,16.29
2023-04-08T09:20:06.737Z,16.63
2023-04-08T09:22:34.320Z,17.23
2023-04-08T09:25:22.520Z,17.68
2023-04-08T09:27:52.029Z,17.64
2023-04-08T09:30:22.438Z,17.89
2023-04-08T09:32:57.790Z,18.04
2023-04-08T09:35:25.690Z,18.14
2023-04-08T09:37:53.753Z,17.94
2023-04-08T09:40:24.789Z,17.30
2023-04-08T09:42:54.465Z,17.27
2023-04-08T09:45:22.591Z,17.53
2023-04-08T09:47:57.713Z,18.08
2023-04-08T09:50:29.275Z,18.62
2023-04-08T09:53:09.704Z,18.86
2023-04-08T09:55:38.529Z,18.88
2023-04-08T09:58:15.483Z,19.23
2023-04-08T10:00:49.364Z,18.59
2023-04-08T10:03:27.377Z,17.69
2023-04-08T10:06:02.126Z,17.61
2023-04-08T10:08:32.934Z,17.33
2023-04-08T10:11:03.452Z,17.25
2023-04-08T10:13:36.011Z,17.27
2023-04-08T10:16:20.198Z,17.39
2023-04-08T10:18:49.435Z,17.54
2023-04-08T10:21:31.336Z,17.56
2023-04-08T10:23:59.786Z,17.27
2023-04-08T10:26:31.890Z,17.47
2023-04-08T10:29:32.052Z,17.21
2023-04-08T10:32:02.601Z,17.26
2023-04-08T10:34:53.164Z,17.25
2023-04-08T10:37:21.288Z,16.72
2023-04-08T10:39:50.388Z,16.48
2023-04-08T10:42:18.038Z,16.30
2023-04-08T10:44:45.672Z,16.13
2023-04-08T10:47:13.280Z,16.22
2023-04-08T10:49:42.454Z,16.15
2023-04-08T10:52:11.765Z,16.06
2023-04-08T10:54:50.043Z,16.25
2023-04-08T10:57:24.215Z,16.36
2023-04-08T10:59:52.172Z,16.49
2023-04-08T11:02:19.946Z,16.47
2023-04-08T11:04:48.990Z,16.57
2023-04-08T11:07:16.845Z,16.49
2023-04-08T11:09:57.269Z,16.56
2023-04-08T11:12:34.743Z,16.78
2023-04-08T11:15:09.961Z,16.94
2023-04-08T11:17:38.368Z,17.09
2023-04-08T11:20:15.286Z,17.04
2023-04-08T11:22:45.751Z,17.39
2023-04-08T11:25:13.516Z,17.49
2023-04-08T11:27:42.200Z,17.61
2023-04-08T11:30:12.110Z,17.76
2023-04-08T11:32:40.227Z,17.80
2023-04-08T11:35:08.370Z,17.91
2023-04-08T11:37:42.038Z,17.86
2023-04-08T11:40:23.307Z,17.72
2023-04-08T11:42:54.270Z,17.91
2023-04-08T11:45:22.465Z,17.81
2023-04-08T11:47:50.497Z,17.67
2023-04-08T11:50:24.932Z,17.42
2023-04-08T11:52:56.062Z,17.44
2023-04-08T11:55:26.027Z,17.52
2023-04-08T11:57:57.923Z,17.41
2023-04-08T12:00:25.830Z,16.82
2023-04-08T12:02:55.001Z,16.90
2023-04-08T12:05:23.370Z,16.87
2023-04-08T12:07:55.091Z,16.90
2023-04-08T12:10:24.441Z,16.74
2023-04-08T12:12:56.840Z,16.61
2023-04-08T12:15:24.788Z,16.34
2023-04-08T12:17:52.820Z,16.24
2023-04-08T12:20:21.312Z,16.30
2023-04-08T12:22:51.796Z,16.42
2023-04-08T12:25:20.949Z,16.28
2023-04-08T12:27:48.786Z,16.35
2023-04-08T12:30:16.796Z,16.33
2023-04-08T12:32:44.821Z,16.25
2023-04-08T12:35:12.733Z,16.13
2023-04-08T12:37:40.319Z,16.20
2023-04-08T12:40:11.367Z,16.10
2023-04-08T12:42:43.758Z,16.21
2023-04-08T12:45:12.226Z,15.99
2023-04-08T12:47:40.971Z,16.01
2023-04-08T12:50:09.651Z,15.71
2023-04-08T12:52:39.173Z,15.80
2023-04-08T12:55:07.742Z,15.90
2023-04-08T12:57:35.945Z,15.90
2023-04-08T13:00:07.788Z,15.63
2023-04-08T13:02:36.405Z,15.69
2023-04-08T13:05:04.456Z,15.66
2023-04-08T13:07:32.191Z,15.72
2023-04-08T13:10:00.006Z,15.67
2023-04-08T13:12:27.737Z,15.71
2023-04-08T13:14:56.026Z,15.56
2023-04-08T13:17:25.325Z,15.59
2023-04-08T13:19:53.505Z,15.38
2023-04-08T13:22:21.212Z,15.36
2023-04-08T13:24:54.646Z,15.36
2023-04-08T13:27:22.232Z,15.31
2023-04-08T13:29:51.337Z,15.43
2023-04-08T13:32:19.399Z,15.43
2023-04-08T13:34:48.389Z,15.31
2023-04-08T13:37:17.224Z,15.45
2023-04-08T13:39:45.207Z,15.48
2023-04-08T13:42:12.824Z,15.58
2023-04-08T13:44:41.820Z,15.58
2023-04-08T13:47:09.540Z,15.67
2023-04-08T13:49:37.411Z,15.66
2023-04-08T13:52:06.855Z,15.69
2023-04-08T13:54:36.363Z,15.79
2023-04-08T13:57:04.176Z,15.75
2023-04-08T13:59:31.926Z,15.80
2023-04-08T14:02:00.378Z,15.81
2023-04-08T14:04:28.110Z,15.74
2023-04-08T14:06:55.956Z,15.68
2023-04-08T14:09:26.616Z,15.72
2023-04-08T14:11:54.699Z,15.81
2023-04-08T14:14:22.402Z,15.82
2023-04-08T14:16:51.647Z,15.79
2023-04-08T14:19:19.364Z,15.73
2023-04-08T14:21:47.575Z,15.62
2023-04-08T14:24:15.541Z,15.78
2023-04-08T14:26:44.769Z,15.76
2023-04-08T14:29:12.535Z,15.86
2023-04-08T14:31:40.327Z,15.87
2023-04-08T14:34:07.928Z,15.95
2023-04-08T14:36:37.466Z,15.89
2023-04-08T14:39:05.497Z,15.77
2023-04-08T14:41:36.476Z,15.69
2023-04-08T14:44:06.214Z,15.47
2023-04-08T14:46:36.714Z,15.36
2023-04-08T14:49:04.677Z,15.24
2023-04-08T14:51:32.450Z,15.11
2023-04-08T14:54:00.012Z,14.99
2023-04-08T14:56:28.316Z,14.91
2023-04-08T14:58:56.472Z,14.85
2023-04-08T15:01:26.212Z,14.70
2023-04-08T15:03:54.120Z,14.64
2023-04-08T15:06:23.812Z,14.65
2023-04-08T15:08:52.288Z,14.64
2023-04-08T15:11:20.306Z,14.51
2023-04-08T15:13:59.652Z,14.53
2023-04-08T15:16:28.870Z,14.47
2023-04-08T15:18:56.491Z,14.37
2023-04-08T15:21:25.074Z,14.32
2023-04-08T15:23:52.763Z,14.36
2023-04-08T15:26:20.334Z,14.25
2023-04-08T15:28:48.570Z,14.26
2023-04-08T15:31:16.549Z,14.23
2023-04-08T15:33:47.060Z,14.20
2023-04-08T15:36:15.457Z,14.24
2023-04-08T15:38:43.223Z,14.23
2023-04-08T15:41:16.127Z,14.09
2023-04-08T15:43:44.811Z,14.07
2023-04-08T15:46:17.138Z,14.01
2023-04-08T15:48:46.305Z,13.93
2023-04-08T15:51:14.048Z,13.86
2023-04-08T15:53:41.962Z,13.79
2023-04-08T15:56:18.800Z,13.76
2023-04-08T15:58:48.151Z,13.66
2023-04-08T16:01:16.096Z,13.55
2023-04-08T16:03:46.668Z,13.48
2023-04-08T16:06:14.673Z,13.50
2023-04-08T16:08:45.210Z,13.40
2023-04-08T16:11:12.973Z,13.33
2023-04-08T16:13:41.439Z,13.15
2023-04-08T16:16:09.453Z,13.03
2023-04-08T16:18:39.782Z,12.93
2023-04-08T16:21:09.021Z,12.86
2023-04-08T16:23:36.716Z,12.71
2023-04-08T16:26:07.828Z,12.62
2023-04-08T16:28:35.945Z,12.55
2023-04-08T16:31:03.804Z,12.45
2023-04-08T16:33:34.510Z,12.23
2023-04-08T16:36:02.610Z,12.15
2023-04-08T16:38:36.718Z,12.03
2023-04-08T16:41:05.136Z,11.87
2023-04-08T16:43:32.761Z,11.75
2023-04-08T16:46:08.926Z,11.58
2023-04-08T16:48:37.026Z,11.55
2023-04-08T16:51:04.824Z,11.43
2023-04-08T16:53:33.033Z,11.33
2023-04-08T16:56:02.610Z,11.20
2023-04-08T16:58:30.357Z,11.03
2023-04-08T17:01:01.665Z,10.94
2023-04-08T17:03:30.546Z,10.80
2023-04-08T17:06:06.435Z,10.67
2023-04-08T17:08:39.478Z,10.65
2023-04-08T17:11:10.628Z,10.62
2023-04-08T17:13:41.780Z,10.52
2023-04-08T17:16:12.872Z,10.45
2023-04-08T17:18:45.898Z,10.34
2023-04-08T17:21:13.690Z,10.30
2023-04-08T17:23:42.514Z,10.22
2023-04-08T17:26:11.988Z,10.24
2023-04-08T17:28:40.048Z,10.17
2023-04-08T17:31:09.470Z,10.12
2023-04-08T17:33:37.377Z,10.03
2023-04-08T17:36:05.796Z,9.87
2023-04-08T17:38:33.803Z,9.96
2023-04-08T17:41:01.407Z,9.84
2023-04-08T17:43:35.688Z,9.85
2023-04-08T17:46:03.864Z,9.76
2023-04-08T17:48:31.552Z,9.78
2023-04-08T17:51:00.109Z,9.61
2023-04-08T17:53:30.041Z,9.50
2023-04-08T17:56:05.614Z,9.39
2023-04-08T17:58:33.245Z,9.38
2023-04-08T18:01:02.328Z,9.37
2023-04-08T18:03:30.773Z,9.38
2023-04-08T18:06:01.916Z,9.23
2023-04-08T18:08:29.952Z,9.14
2023-04-08T18:10:58.069Z,9.17
2023-04-08T18:13:28.980Z,9.33
2023-04-08T18:15:56.566Z,9.30
2023-04-08T18:18:31.807Z,9.27
2023-04-08T18:21:03.690Z,9.25
2023-04-08T18:23:33.982Z,9.25
2023-04-08T18:26:02.064Z,9.08
2023-04-08T18:28:32.284Z,9.12
2023-04-08T18:31:06.362Z,9.09
2023-04-08T18:33:35.464Z,9.12
2023-04-08T18:36:07.021Z,9.09
2023-04-08T18:38:39.481Z,8.91
2023-04-08T18:41:12.013Z,8.89
2023-04-08T18:43:40.420Z,8.80
2023-04-08T18:46:08.102Z,8.85
2023-04-08T18:48:39.639Z,8.99
2023-04-08T18:51:09.825Z,9.02
2023-04-08T18:53:39.438Z,8.99
2023-04-08T18:56:14.476Z,8.90
2023-04-08T18:58:44.176Z,9.10
2023-04-08T19:01:11.921Z,9.09
2023-04-08T19:03:44.004Z,9.10
2023-04-08T19:06:15.552Z,9.07
2023-04-08T19:08:47.048Z,8.95
2023-04-08T19:11:18.216Z,8.92
2023-04-08T19:13:48.267Z,8.76
2023-04-08T19:16:16.606Z,8.77
2023-04-08T19:18:46.662Z,8.80
2023-04-08T19:21:14.331Z,8.69
2023-04-08T19:23:44.251Z,8.70
2023-04-08T19:26:12.647Z,8.53
2023-04-08T19:28:44.965Z,8.62
2023-04-08T19:31:19.027Z,8.56
2023-04-08T19:33:48.522Z,8.48
2023-04-08T19:36:26.123Z,8.16
2023-04-08T19:38:53.755Z,7.95
2023-04-08T19:41:21.502Z,7.86
2023-04-08T19:43:50.781Z,7.84
2023-04-08T19:46:24.818Z,7.88
2023-04-08T19:48:54.203Z,7.78
2023-04-08T19:51:21.911Z,7.67
2023-04-08T19:53:50.004Z,7.66
2023-04-08T19:56:18.955Z,7.67
2023-04-08T19:58:49.938Z,7.59
2023-04-08T20:01:21.548Z,7.56
2023-04-08T20:03:49.335Z,7.49
2023-04-08T20:06:18.983Z,7.39
2023-04-08T20:08:47.217Z,7.30
2023-04-08T20:11:20.187Z,7.29
2023-04-08T20:13:48.306Z,7.27
2023-04-08T20:16:20.354Z,7.36
2023-04-08T20:18:48.130Z,7.30
2023-04-08T20:21:21.423Z,7.36
2023-04-08T20:23:54.258Z,7.44
2023-04-08T20:26:23.344Z,7.41
2023-04-08T20:28:56.330Z,7.43
2023-04-08T20:31:26.072Z,7.36
2023-04-08T20:34:02.084Z,7.40
2023-04-08T20:36:32.200Z,7.44
2023-04-08T20:38:59.758Z,7.45
2023-04-08T20:41:28.227Z,7.53
2023-04-08T20:43:56.040Z,7.56
2023-04-08T20:46:30.348Z,7.59
2023-04-08T20:48:58.490Z,7.59
2023-04-08T20:51:26.634Z,7.64
2023-04-08T20:53:57.830Z,7.53
2023-04-08T20:56:27.262Z,7.57
2023-04-08T20:59:01.300Z,7.69
2023-04-08T21:01:30.649Z,7.70
2023-04-08T21:04:51.861Z,7.65
2023-04-08T21:07:33.369Z,7.73
2023-04-08T21:13:27.522Z,7.83
2023-04-08T21:15:55.544Z,7.91
2023-04-08T21:18:41.192Z,7.92
2023-04-08T21:24:39.669Z,7.82
2023-04-08T21:27:36.606Z,7.80
2023-04-08T21:30:28.063Z,7.74
2023-04-08T21:36:08.307Z,7.68
2023-04-08T21:39:10.315Z,7.63
2023-04-08T21:41:55.121Z,7.71
2023-04-08T21:44:55.080Z,7.69
2023-04-08T21:47:22.817Z,7.63
2023-04-08T21:50:06.061Z,7.76
2023-04-08T21:52:41.666Z,7.88
2023-04-08T21:55:11.531Z,7.96
2023-04-08T21:57:41.767Z,8.05
2023-04-08T22:00:12.353Z,8.01
2023-04-08T22:02:41.762Z,8.03
2023-04-08T22:05:12.031Z,7.94
2023-04-08T22:07:42.974Z,8.16
2023-04-08T22:10:13.576Z,8.15
2023-04-08T22:12:42.110Z,8.17
2023-04-08T22:15:12.056Z,8.12
2023-04-08T22:17:41.325Z,7.99
2023-04-08T22:20:12.417Z,7.86
2023-04-08T22:22:41.449Z,7.73
2023-04-08T22:25:09.734Z,7.69
2023-04-08T22:27:37.428Z,7.57
2023-04-08T22:30:11.628Z,7.57
2023-04-08T22:32:51.443Z,7.50
2023-04-08T22:35:19.822Z,7.49
2023-04-08T22:37:48.852Z,7.50
2023-04-08T22:40:16.817Z,7.53
2023-04-08T22:42:44.650Z,7.46
2023-04-08T22:45:13.641Z,7.39
2023-04-08T22:47:41.366Z,7.33
2023-04-08T22:50:10.793Z,7.34
2023-04-08T22:52:38.575Z,7.38
2023-04-08T22:55:07.231Z,7.37
2023-04-08T22:57:35.260Z,7.40
2023-04-08T23:00:04.342Z,7.29
2023-04-08T23:02:35.169Z,7.25
2023-04-08T23:05:03.274Z,7.24
2023-04-08T23:07:31.530Z,7.24
2023-04-08T23:09:59.945Z,7.24
2023-04-08T23:12:27.618Z,7.31
2023-04-08T23:15:01.173Z,7.29
2023-04-08T23:17:29.434Z,7.24
2023-04-08T23:19:58.583Z,7.29
2023-04-08T23:22:26.327Z,7.40
2023-04-08T23:24:54.485Z,7.35
2023-04-08T23:27:22.150Z,7.52
2023-04-08T23:29:50.482Z,7.55
2023-04-08T23:32:18.107Z,7.55
2023-04-08T23:34:45.698Z,7.56
2023-04-08T23:37:14.855Z,7.64
2023-04-08T23:39:44.157Z,7.62
2023-04-08T23:42:11.722Z,7.59
2023-04-08T23:44:40.015Z,7.62
2023-04-08T23:47:07.724Z,7.63
2023-04-08T23:49:37.531Z,7.67
2023-04-08T23:52:05.852Z,7.66
2023-04-08T23:54:34.857Z,7.68
2023-04-08T23:57:02.762Z,7.68
2023-04-08T23:59:30.577Z,7.76
